Weather reports worldwide

Advertisment
Großer Arber, Germany (10791): temperature & dewpoint: 11.01.2021 22:00:00 - 17.01.2021 22:00:00 (CET)Großer Arber, Germany (10791): wind speed & gusts: 11.01.2021 22:00:00 - 17.01.2021 22:00:00 (CET)Großer Arber, Germany (10791): wind direction: 11.01.2021 22:00:00 - 17.01.2021 22:00:00 (CET)Großer Arber, Germany (10791): visibility: 11.01.2021 22:00:00 - 17.01.2021 22:00:00 (CET)Großer Arber, Germany (10791): sunshine duration: 11.01.2021 22:00:00 - 17.01.2021 22:00:00 (CET)Großer Arber, Germany (10791): precipitation: 11.01.2021 22:00:00 - 17.01.2021 22:00:00 (CET)
Date & Time tt [°C] td [°C] ff [km/h] ff [kn] fx [km/h] fx [kn] dd vv [km] sd [min] rr [mm]
17.01.2021 22:00:00 -10,8 -11,7 21 12 36 20 W - 0 0,0
17.01.2021 21:00:00 -11,1 -12,1 26 14 39 21 WNW - 0 0,0
17.01.2021 20:00:00 -11,4 -12,4 25 13 37 20 NW - 0 0,0
17.01.2021 19:00:00 -12,4 -13,2 18 10 26 14 WNW - 0 0,0
17.01.2021 18:00:00 -12,0 -13,9 14 7 16 8 WNW 75 0 0,0
17.01.2021 17:00:00 -11,3 -13,9 13 7 14 8 NNW 75 0 0,0
17.01.2021 16:00:00 -9,2 -15,2 6 4 9 5 N 75 0 0,0
17.01.2021 15:00:00 -8,4 -14,6 4 2 9 5 NNE 74 0 0,0
17.01.2021 14:00:00 -8,3 -11,1 3 1 15 8 NNW 0,1 10 0,0
17.01.2021 13:00:00 -8,7 -11,5 9 5 18 10 W 0,3 60 0,0
17.01.2021 12:00:00 -9,9 -12,2 9 5 27 15 W 0,1 21 0,0
17.01.2021 11:00:00 -10,1 -12,0 16 8 31 17 WSW 0,1 50 0,0
17.01.2021 10:00:00 -10,0 -12,7 22 12 29 16 W 61 60 0,0
17.01.2021 09:00:00 -10,6 -13,0 17 9 21 12 WNW 75 24 0,0
17.01.2021 08:00:00 -12,0 -12,9 15 8 27 15 NNW - 0 0,0
17.01.2021 07:00:00 -11,8 -12,8 22 12 29 16 NW 0,1 0 0,0
17.01.2021 06:00:00 -11,7 -12,7 23 12 34 18 NW 0,1 0 0,0
17.01.2021 05:00:00 -11,6 -12,6 24 13 39 21 WNW 0,1 0 0,0
17.01.2021 04:00:00 -11,6 -12,7 25 13 47 25 WNW 0,1 0 0,0
17.01.2021 03:00:00 -11,8 -13,0 29 16 54 29 WNW 0,1 0 0,0
17.01.2021 02:00:00 -11,9 -13,1 30 16 50 27 WNW 0,1 0 0,0
17.01.2021 01:00:00 -11,8 -13,0 41 22 61 33 W 0,1 0 0,0
17.01.2021 00:00:00 -12,2 -13,4 37 20 51 27 W 0,1 0 0,0
16.01.2021 23:00:00 -12,6 -13,9 35 19 46 25 W 0,1 0 0,0
16.01.2021 22:00:00 -12,6 -13,8 30 16 46 25 WNW 0,1 0 0,0
16.01.2021 21:00:00 -12,6 -13,9 32 17 51 28 WNW 0,1 0 0,0
16.01.2021 20:00:00 -12,7 -14,0 34 18 53 29 NW 0,2 0 0,0
16.01.2021 19:00:00 -12,4 -13,7 35 19 61 33 WNW - 0 0,0
16.01.2021 18:00:00 -11,5 -12,7 40 22 67 36 WNW - 0 0,0
16.01.2021 17:00:00 -11,4 -12,6 44 24 61 33 W 0,1 0 0,0
16.01.2021 16:00:00 -11,5 -12,8 42 23 66 36 W 0,1 0 0,0
16.01.2021 15:00:00 -11,4 -12,8 48 26 74 40 W 0,1 0 0,0
16.01.2021 14:00:00 -11,3 -12,6 33 18 56 31 WNW 0,1 0 0,0
16.01.2021 13:00:00 -11,3 -12,7 28 15 55 30 WNW 0,1 0 0,0
16.01.2021 12:00:00 -11,4 -12,7 25 13 48 26 WNW 0,1 0 0,0
16.01.2021 11:00:00 -11,3 -12,6 23 12 51 28 WNW 0,1 0 0,0
16.01.2021 10:00:00 -11,4 -12,7 27 14 46 25 NW 0,1 0 0,0
16.01.2021 09:00:00 -11,7 -12,9 33 18 49 26 NW 0,1 0 0,0
16.01.2021 08:00:00 -11,8 -12,9 33 18 56 30 NW 0,1 0 0,0
16.01.2021 07:00:00 -11,9 -13,1 37 20 52 28 NW 0,1 0 0,0
16.01.2021 06:00:00 -12,0 -13,3 41 22 59 32 NW 0,1 0 0,0
16.01.2021 05:00:00 -11,7 -12,9 38 21 56 31 NW 0,1 0 0,0
16.01.2021 04:00:00 -11,6 -12,7 30 16 48 26 NW 0,1 0 0,0
16.01.2021 03:00:00 -11,4 -12,6 34 18 44 24 NNW 0,1 0 0,0
16.01.2021 02:00:00 -11,0 -12,2 34 18 49 27 NNW 0,1 0 0,0
16.01.2021 01:00:00 -10,6 -11,7 33 18 45 24 NNW 0,1 0 0,0
16.01.2021 00:00:00 -10,4 -11,3 28 15 43 23 NNW - 0 0,0
15.01.2021 23:00:00 -10,3 -11,4 34 19 48 26 NNW - 0 0,0
15.01.2021 22:00:00 -10,2 -11,3 34 18 47 25 NNW - 0 0,0
15.01.2021 21:00:00 -9,9 -10,9 28 15 45 24 NNW - 0 0,0
15.01.2021 20:00:00 -9,7 -10,7 27 15 49 26 NNW - 0 0,0
15.01.2021 19:00:00 -9,4 -10,5 28 15 44 24 NNW 0,1 0 0,0
15.01.2021 18:00:00 -8,8 -9,8 31 17 53 29 NNW - 0 0,0
15.01.2021 17:00:00 -8,2 -9,1 33 18 46 25 NNW - 0 0,0
15.01.2021 16:00:00 -8,1 -9,0 23 12 37 20 NNW - 0 0,0
15.01.2021 15:00:00 -7,9 -9,0 22 12 31 17 NNW - 0 0,0
15.01.2021 14:00:00 -7,9 -9,1 15 8 30 16 N 0,1 0 0,0
15.01.2021 13:00:00 -7,8 -9,2 23 12 36 20 N 0,2 0 0,0
15.01.2021 12:00:00 -7,8 -9,1 23 12 32 17 N 0,1 0 0,0
15.01.2021 11:00:00 -7,9 -9,0 20 11 31 17 N 0,1 0 0,0
15.01.2021 10:00:00 -8,5 -9,5 18 10 29 16 NNE 0,1 0 0,0
15.01.2021 09:00:00 -8,8 -9,8 23 13 37 20 NE 0,6 0 0,0
15.01.2021 08:00:00 -9,1 -9,9 22 12 36 19 NE 0,1 0 0,0
15.01.2021 07:00:00 -9,2 -9,9 22 12 35 19 NE 0,1 0 0,0
15.01.2021 06:00:00 -9,0 -9,6 18 10 29 16 NNE 0,1 0 0,0
15.01.2021 05:00:00 -9,1 -9,7 20 11 29 16 NNE 0,1 0 0,0
15.01.2021 04:00:00 -9,5 -10,0 18 10 26 14 NNE 15 0 0,0
15.01.2021 03:00:00 -9,6 -9,8 11 6 19 10 N 0,6 0 0,0
15.01.2021 02:00:00 -10,1 -10,4 16 9 22 12 N 75 0 0,0
15.01.2021 01:00:00 -9,5 -9,7 21 12 32 17 NNE 43 0 0,0
15.01.2021 00:00:00 -9,1 -9,1 16 9 25 13 N 29 0 0,0
14.01.2021 23:00:00 -8,7 -8,7 12 6 18 10 N 6 0 0,0
14.01.2021 22:00:00 -8,4 -8,4 12 7 21 11 NNW 0,1 0 0,0
14.01.2021 21:00:00 -8,2 -8,2 13 7 23 12 N 0,1 0 0,0
14.01.2021 20:00:00 -8,1 -8,1 16 9 27 15 NNW - 0 0,0
14.01.2021 19:00:00 -8,1 -8,1 19 10 37 20 NNW - 0 0,0
14.01.2021 18:00:00 -8,1 -8,1 19 11 38 20 NW 0,1 0 0,0
14.01.2021 17:00:00 -8,1 -8,1 20 11 34 18 NNW 0,1 0 0,0
14.01.2021 16:00:00 -7,9 -7,9 19 10 28 15 NW - 0 0,1
14.01.2021 15:00:00 -8,0 -8,0 19 11 41 22 NNW - 0 0,0
14.01.2021 14:00:00 -8,1 -8,2 33 18 50 27 NNW - 0 0,0
14.01.2021 13:00:00 -8,2 -8,5 38 20 72 39 NNW - 0 0,0
14.01.2021 12:00:00 -8,3 -8,8 45 24 63 34 NNW 0,1 0 0,0
14.01.2021 11:00:00 -8,6 -9,3 48 26 74 40 NNW 0,1 0 0,0
14.01.2021 10:00:00 -8,9 -9,7 49 26 67 36 NW 0,1 0 0,0
14.01.2021 09:00:00 -9,2 -10,0 46 25 85 46 NW 0,1 0 0,0
14.01.2021 08:00:00 -9,3 -10,2 54 29 84 46 NW 0,1 0 0,0
14.01.2021 07:00:00 -9,4 -10,3 44 24 74 40 NW 0,1 0 0,0
14.01.2021 06:00:00 -8,6 -9,2 29 15 74 40 WNW 0,1 0 0,0
14.01.2021 05:00:00 -8,6 -9,4 47 25 74 40 NW 0,1 0 0,0
14.01.2021 04:00:00 -8,0 -8,8 56 31 87 47 NW 0,1 0 0,0
14.01.2021 03:00:00 -7,0 -7,7 51 27 90 49 WNW 0,1 0 0,0
14.01.2021 02:00:00 -7,2 -7,9 59 32 88 47 W - 0 0,0
14.01.2021 01:00:00 -7,5 -8,3 65 35 96 52 W - 0 0,0
14.01.2021 00:00:00 -7,7 -8,5 62 33 94 51 W - 0 0,0
13.01.2021 23:00:00 -7,8 -8,5 55 30 90 49 W 0,1 0 0,0
13.01.2021 22:00:00 -7,9 -8,6 46 25 76 41 W 0,1 0 0,0
13.01.2021 21:00:00 -7,8 -8,6 55 30 85 46 W - 0 0,0
13.01.2021 20:00:00 -8,0 -8,8 48 26 82 44 W 0,1 0 0,1
13.01.2021 19:00:00 -8,0 -8,8 53 29 89 48 W 0,1 0 0,0
13.01.2021 18:00:00 -7,8 -8,7 64 35 94 51 WSW 0,1 0 0,0
13.01.2021 17:00:00 -7,4 -8,1 57 31 90 49 W 0,1 0 0,0
13.01.2021 16:00:00 -7,4 -8,1 44 24 74 40 W - 0 0,1
13.01.2021 15:00:00 -7,3 -8,0 41 22 63 34 WSW - 0 0,1
13.01.2021 14:00:00 -7,3 -8,1 41 22 66 36 W - 0 0,0
13.01.2021 13:00:00 -7,4 -8,3 44 24 67 36 W - 0 0,0
13.01.2021 12:00:00 -7,8 -8,8 46 25 70 38 W 0,1 0 0,0
13.01.2021 11:00:00 -7,8 -8,5 35 19 54 29 W - 0 0,0
13.01.2021 10:00:00 -8,2 -9,0 39 21 58 32 W - 0 0,0
13.01.2021 09:00:00 -8,1 -8,9 35 19 61 33 NW 0,1 0 0,1
13.01.2021 08:00:00 -8,0 -8,7 33 18 65 35 WNW 0,1 0 0,0
13.01.2021 07:00:00 -7,9 -8,6 37 20 62 34 WNW 0,1 0 0,0
13.01.2021 06:00:00 -7,9 -8,5 30 16 61 33 WNW 0,1 0 0,0
13.01.2021 05:00:00 -8,2 -9,0 44 24 60 33 WNW 0,4 0 0,0
13.01.2021 04:00:00 -8,0 -8,8 36 19 53 29 WNW 0,1 0 0,0
13.01.2021 03:00:00 -7,8 -8,5 29 15 56 30 NW 0,2 0 0,0
13.01.2021 02:00:00 -6,6 -7,2 32 17 60 33 WNW 0,1 0 0,1
13.01.2021 01:00:00 -6,2 -6,7 37 20 61 33 NW 0,1 0 0,8
13.01.2021 00:00:00 -5,7 -6,3 36 19 56 30 NW 0,1 0 0,2
12.01.2021 23:00:00 -5,2 -5,6 29 16 68 37 WNW 0,1 0 0,1
12.01.2021 22:00:00 -5,1 -5,6 44 24 70 38 WNW 0,1 0 0,2
12.01.2021 21:00:00 -5,1 -5,6 55 30 78 42 W 0,2 0 0,0
12.01.2021 20:00:00 -5,2 -5,7 53 29 80 43 W 0,1 0 0,0
12.01.2021 19:00:00 -5,3 -5,8 56 30 79 42 W 0,2 0 0,0
12.01.2021 18:00:00 -5,5 -6,1 62 33 82 44 WSW 0,1 0 0,1
12.01.2021 17:00:00 -5,6 -6,2 55 30 79 43 WSW 0,1 0 0,1
12.01.2021 16:00:00 -5,8 -6,5 61 33 89 48 WSW 0,1 0 0,3
12.01.2021 15:00:00 -5,9 -6,6 66 36 86 47 WSW 0,1 0 0,4
12.01.2021 14:00:00 -6,2 -6,9 56 30 86 46 WSW 0,1 0 0,2
12.01.2021 13:00:00 -6,4 -7,0 62 34 89 48 WSW 0,1 0 0,2
12.01.2021 12:00:00 -6,8 -7,5 55 30 78 42 SW 0,1 0 0,2
12.01.2021 11:00:00 -8,2 -9,0 53 29 64 35 SW - 0 0,1
12.01.2021 10:00:00 -8,4 -9,2 48 26 71 38 SSW - 0 0,0
12.01.2021 09:00:00 -8,9 -9,8 54 29 69 38 SW 0,1 0 0,0
12.01.2021 08:00:00 -8,8 -9,8 56 31 71 38 SW - 0 0,0
12.01.2021 07:00:00 -8,2 -9,1 54 29 77 42 SW - 0 0,0
12.01.2021 06:00:00 -8,3 -9,2 58 31 71 38 SW - 0 0,0
12.01.2021 05:00:00 -8,2 -9,2 55 30 67 36 WSW - 0 0,0
12.01.2021 04:00:00 -7,5 -8,3 51 28 67 36 WSW 0,1 0 0,0
12.01.2021 03:00:00 -8,4 -9,4 49 27 63 34 WSW 4,3 0 0,0
12.01.2021 02:00:00 -8,3 -13,7 48 26 59 32 WSW 24 0 0,0
12.01.2021 01:00:00 -8,0 -13,8 49 26 58 31 WSW 39 0 0,0
12.01.2021 00:00:00 -9,2 -13,8 41 22 49 26 WSW 75 0 0,0
11.01.2021 23:00:00 -9,1 -13,3 39 21 42 23 SW 75 0 0,0
11.01.2021 22:00:00 -8,5 -13,4 30 16 36 19 SW 75 0 0,0

tt = temperature
td = dewpoint
ff = wind speed
fx = gusts
dd = wind direction
vv = visibility
sd = sunshine duration
rr = precipitation

Next stations